Time;durP1;ratioP1;P1;durP2;ratioP2;P2;SDS_P1;SDS_P2;PMS_P1;PMS_P2;Temp;Humidity;BMP_temperature;BMP_pressure;BME280_temperature;BME280_humidity;BME280_pressure;Samples;Min_cycle;Max_cycle;Signal;HPM_P1;HPM_P2
2024/01/22 00:01:12;;;;;;;;;;;;;;;-144.99;100.00;52582.63;5015361;28;19925;-70
2024/01/22 00:03:38;;;;;;;;;;;;;;;-144.99;100.00;52586.69;5016208;28;19925;-72
2024/01/22 00:06:06;;;;;;;;;;;;;;;-144.99;100.00;52545.94;5017504;28;19928;-68
2024/01/22 00:08:33;;;;;;;;;;;;;;;-144.99;100.00;52566.31;5016467;28;19926;-69
2024/01/22 00:10:59;;;;;;;;;;;;;;;-144.99;100.00;52574.47;5012237;28;19933;-70
2024/01/22 00:13:26;;;;;;;;;;;;;;;-144.99;100.00;52550.00;5012279;28;19929;-71
2024/01/22 00:15:52;;;;;;;;;;;;;;;-144.99;100.00;52576.50;5016620;28;19936;-70
2024/01/22 00:18:19;;;;;;;;;;;;;;;-144.99;100.00;52556.13;5014977;28;20690;-71
2024/01/22 00:20:45;;;;;;;;;;;;;;;-144.99;100.00;52541.84;5022512;28;19928;-72
2024/01/22 00:23:13;;;;;;;;;;;;;;;-144.99;100.00;52582.63;5023595;28;19994;-72
2024/01/22 00:25:39;;;;;;;;;;;;;;;-144.99;100.00;52531.66;5022831;28;20002;-72
2024/01/22 00:28:06;;;;;;;;;;;;;;;-144.99;100.00;52558.16;5021382;28;20055;-74
2024/01/22 00:30:33;;;;;;;;;;;;;;;-144.99;100.00;52574.47;5023628;28;19932;-71
2024/01/22 00:33:00;;;;;;;;;;;;;;;-144.99;100.00;52570.38;5020079;28;20376;-71
2024/01/22 00:35:27;;;;;;;;;;;;;;;-144.99;100.00;52570.38;5031115;28;20028;-72
2024/01/22 00:37:54;;;;;;;;;;;;;;;-144.99;100.00;52550.00;5023160;28;20526;-70
2024/01/22 00:40:21;;;;;;;;;;;;;;;-144.99;100.00;52519.44;5012766;28;19991;-72
2024/01/22 00:42:48;;;;;;;;;;;;;;;-144.99;100.00;52558.16;5023292;28;20549;-69
2024/01/22 00:45:14;;;;;;;;;;;;;;;-144.99;100.00;52537.78;5018211;28;20044;-65
2024/01/22 00:47:41;;;;;;;;;;;;;;;-144.99;100.00;52574.47;5021335;28;20035;-65
2024/01/22 00:50:07;;;;;;;;;;;;;;;-144.99;100.00;52590.78;5014596;28;19925;-66
2024/01/22 00:52:34;;;;;;;;;;;;;;;-144.99;100.00;52541.84;5019975;28;20453;-67
2024/01/22 00:55:01;;;;;;;;;;;;;;;-144.99;100.00;52558.16;5020491;28;19929;-69
2024/01/22 00:57:28;;;;;;;;;;;;;;;-144.99;100.00;52537.78;5043453;23;19933;-71
2024/01/22 00:59:55;;;;;;;;;;;;;;;-144.99;100.00;52558.16;5029722;28;20055;-73
2024/01/22 01:02:21;;;;;;;;;;;;;;;-144.99;100.00;52525.56;5010771;28;19926;-72
2024/01/22 01:04:48;;;;;;;;;;;;;;;-144.99;100.00;52525.56;5017172;28;19964;-69
2024/01/22 01:07:17;;;;;;;;;;;;;;;-144.99;99.53;52566.31;5015028;28;20012;-70
2024/01/22 01:09:43;;;;;;;;;;;;;;;-144.99;99.25;52513.31;5012127;28;19926;-69
2024/01/22 01:12:10;;;;;;;;;;;;;;;-144.99;99.00;52580.59;5013506;28;19967;-70
2024/01/22 01:14:38;;;;;;;;;;;;;;;-144.99;98.84;52529.63;5012123;28;20217;-71
2024/01/22 01:17:04;;;;;;;;;;;;;;;-144.99;98.73;52582.63;5017567;28;19933;-69
2024/01/22 01:19:31;;;;;;;;;;;;;;;-144.99;98.61;52558.16;5017444;28;20182;-72
2024/01/22 01:21:57;;;;;;;;;;;;;;;-144.99;98.87;52533.69;5019270;28;19940;-69
2024/01/22 01:24:24;;;;;;;;;;;;;;;-144.99;98.44;52570.38;5009423;28;20024;-70
2024/01/22 01:26:50;;;;;;;;;;;;;;;-144.99;98.63;52525.56;5017034;28;19996;-68
2024/01/22 01:29:17;;;;;;;;;;;;;;;-144.99;98.51;52566.31;5019424;28;19979;-71
2024/01/22 01:31:45;;;;;;;;;;;;;;;-144.99;97.71;52578.53;5012712;28;20023;-69
2024/01/22 01:34:11;;;;;;;;;;;;;;;-144.99;97.64;52545.94;5009069;28;20011;-69
2024/01/22 01:36:38;;;;;;;;;;;;;;;-144.99;98.11;52556.13;5015749;28;19925;-69
2024/01/22 01:39:04;;;;;;;;;;;;;;;-144.99;98.09;52545.94;5014385;28;20023;-68
2024/01/22 01:41:31;;;;;;;;;;;;;;;-144.99;98.26;52558.16;5010845;28;19968;-68
2024/01/22 01:43:57;;;;;;;;;;;;;;;-144.99;98.42;52527.59;5010800;28;20410;-67
2024/01/22 01:46:24;;;;;;;;;;;;;;;-144.99;98.47;52533.69;5013532;28;20004;-67
2024/01/22 01:48:52;;;;;;;;;;;;;;;-144.99;99.19;52550.00;5009478;28;20376;-66
2024/01/22 01:51:19;;;;;;;;;;;;;;;-144.99;99.43;52543.91;5017076;28;20392;-66
2024/01/22 01:53:46;;;;;;;;;;;;;;;-144.99;100.00;52580.59;5013473;28;19984;-69
2024/01/22 01:56:13;;;;;;;;;;;;;;;-144.99;100.00;52558.16;5006045;28;19932;-66
2024/01/22 01:58:39;;;;;;;;;;;;;;;-144.99;100.00;52558.16;5008492;28;19976;-67
2024/01/22 02:01:06;;;;;;;;;;;;;;;-144.99;100.00;52545.94;5019144;28;19957;-68
2024/01/22 02:03:33;;;;;;;;;;;;;;;-144.99;100.00;52529.63;5014384;28;20932;-67
2024/01/22 02:06:01;;;;;;;;;;;;;;;-144.99;100.00;52558.16;5005214;28;20052;-69
2024/01/22 02:08:27;;;;;;;;;;;;;;;-144.99;100.00;52521.47;5009717;28;20046;-69
2024/01/22 02:10:54;;;;;;;;;;;;;;;-144.99;100.00;52552.03;5013908;28;20458;-69
2024/01/22 02:13:20;;;;;;;;;;;;;;;-144.99;100.00;52570.38;5014988;28;19926;-69
2024/01/22 02:15:47;;;;;;;;;;;;;;;-144.99;100.00;52554.09;5011013;28;19965;-69
2024/01/22 02:18:13;;;;;;;;;;;;;;;-144.99;100.00;52543.91;5010389;28;20012;-69
2024/01/22 02:20:40;;;;;;;;;;;;;;;-144.99;100.00;52533.69;5018714;28;19976;-69
2024/01/22 02:23:08;;;;;;;;;;;;;;;-144.99;100.00;52550.00;5015419;28;19976;-69
2024/01/22 02:25:34;;;;;;;;;;;;;;;-144.99;100.00;52537.78;5019973;28;19929;-69
2024/01/22 02:28:00;;;;;;;;;;;;;;;-144.99;100.00;52550.00;5010405;28;19967;-69
2024/01/22 02:30:27;;;;;;;;;;;;;;;-144.99;100.00;52537.78;5017190;28;20092;-69
2024/01/22 02:32:53;;;;;;;;;;;;;;;-144.99;100.00;52533.69;5014299;28;19961;-69
2024/01/22 02:35:20;;;;;;;;;;;;;;;-144.99;100.00;52554.09;5013738;28;19972;-69
2024/01/22 02:37:47;;;;;;;;;;;;;;;-144.99;100.00;52570.38;5011618;28;19960;-69
2024/01/22 02:40:14;;;;;;;;;;;;;;;-144.99;100.00;52570.38;5027530;28;19932;-69
2024/01/22 02:42:41;;;;;;;;;;;;;;;-144.99;100.00;52562.25;5021858;28;19969;-68
2024/01/22 02:45:08;;;;;;;;;;;;;;;-144.99;100.00;52521.47;5022310;28;20167;-68
2024/01/22 02:47:35;;;;;;;;;;;;;;;-144.99;100.00;52562.25;5023360;28;19937;-68
2024/01/22 02:50:01;;;;;;;;;;;;;;;-144.99;100.00;52533.69;5023316;28;19932;-68
2024/01/22 02:52:28;;;;;;;;;;;;;;;-144.99;100.00;52560.19;5019312;28;19972;-68
2024/01/22 02:54:54;;;;;;;;;;;;;;;-144.99;100.00;52588.75;5010750;28;19976;-69
2024/01/22 02:57:22;;;;;;;;;;;;;;;-144.99;100.00;52513.31;5009451;28;19972;-69
2024/01/22 02:59:49;;;;;;;;;;;;;;;-144.99;100.00;52541.84;5019949;28;19933;-69
2024/01/22 03:02:15;;;;;;;;;;;;;;;-144.99;100.00;52541.84;5013134;28;19964;-69
2024/01/22 03:04:42;;;;;;;;;;;;;;;-144.99;100.00;52556.13;5018023;28;19960;-70
2024/01/22 03:07:08;;;;;;;;;;;;;;;-144.99;100.00;52558.16;5011639;28;20731;-69
2024/01/22 03:09:35;;;;;;;;;;;;;;;-144.99;100.00;52515.34;5015087;28;20230;-69
2024/01/22 03:12:02;;;;;;;;;;;;;;;-144.99;100.00;52545.94;5015486;28;20021;-69
2024/01/22 03:14:30;;;;;;;;;;;;;;;-144.99;100.00;52541.84;5016226;28;19980;-69
2024/01/22 03:16:56;;;;;;;;;;;;;;;-144.99;100.00;52529.63;5007243;28;20024;-70
2024/01/22 03:19:23;;;;;;;;;;;;;;;-144.99;100.00;52525.56;5011466;28;19926;-70
2024/01/22 03:21:49;;;;;;;;;;;;;;;-144.99;100.00;52537.78;5011779;28;19972;-70
2024/01/22 03:24:16;;;;;;;;;;;;;;;-144.99;100.00;52550.00;5009544;28;20008;-70
2024/01/22 03:26:43;;;;;;;;;;;;;;;-144.99;100.00;52523.50;5014263;28;20028;-70
2024/01/22 03:29:08;;;;;;;;;;;;;;;-144.99;100.00;52566.31;5009977;28;19972;-69
2024/01/22 03:31:37;;;;;;;;;;;;;;;-144.99;100.00;52570.38;5016870;28;19972;-68
2024/01/22 03:34:04;;;;;;;;;;;;;;;-144.99;100.00;52513.31;5007092;28;19929;-67
2024/01/22 03:36:31;;;;;;;;;;;;;;;-144.99;100.00;52533.69;5006588;28;20026;-68
2024/01/22 03:38:57;;;;;;;;;;;;;;;-144.99;100.00;52547.97;5010195;28;20028;-67
2024/01/22 03:41:24;;;;;;;;;;;;;;;-144.99;100.00;52513.31;5010315;28;19959;-67
2024/01/22 03:43:50;;;;;;;;;;;;;;;-144.99;100.00;52497.00;5010896;28;20032;-67
2024/01/22 03:46:18;;;;;;;;;;;;;;;-144.99;100.00;52545.94;5011818;28;20020;-66
2024/01/22 03:48:46;;;;;;;;;;;;;;;-144.99;100.00;52505.16;5015559;28;19964;-68
2024/01/22 03:51:12;;;;;;;;;;;;;;;-144.99;100.00;52521.47;5018021;28;19933;-67
2024/01/22 03:53:39;;;;;;;;;;;;;;;-144.99;100.00;52529.63;5020685;28;19926;-67
2024/01/22 03:56:06;;;;;;;;;;;;;;;-144.99;100.00;52545.94;5018183;28;20033;-67
2024/01/22 03:58:32;;;;;;;;;;;;;;;-144.99;100.00;52564.28;5016029;28;19929;-67
2024/01/22 04:00:59;;;;;;;;;;;;;;;-144.99;100.00;52545.94;5008677;28;19932;-68
2024/01/22 04:03:25;;;;;;;;;;;;;;;-144.99;100.00;52511.28;5007083;28;19971;-68
2024/01/22 04:05:53;;;;;;;;;;;;;;;-144.99;100.00;52521.47;5019430;28;20024;-68
2024/01/22 04:08:20;;;;;;;;;;;;;;;-144.99;100.00;52492.94;5009841;28;19987;-67
2024/01/22 04:10:46;;;;;;;;;;;;;;;-144.99;100.00;52529.63;5009217;28;19980;-68
2024/01/22 04:13:13;;;;;;;;;;;;;;;-144.99;100.00;52543.91;5008997;28;19987;-68
2024/01/22 04:15:39;;;;;;;;;;;;;;;-144.99;100.00;52537.78;5012850;28;20027;-68
2024/01/22 04:18:06;;;;;;;;;;;;;;;-144.99;100.00;52517.41;5010570;28;19976;-68
2024/01/22 04:20:33;;;;;;;;;;;;;;;-144.99;100.00;52541.84;5009317;28;19933;-72
2024/01/22 04:23:01;;;;;;;;;;;;;;;-144.99;100.00;52539.81;5010135;28;19992;-71
2024/01/22 04:25:27;;;;;;;;;;;;;;;-144.99;100.00;52537.78;5010532;28;19964;-71
2024/01/22 04:27:55;;;;;;;;;;;;;;;-144.99;100.00;52513.31;5023173;28;20024;-71
2024/01/22 04:30:21;;;;;;;;;;;;;;;-144.99;100.00;52545.94;5024396;28;19930;-71
2024/01/22 04:32:48;;;;;;;;;;;;;;;-144.99;100.00;52509.25;5010404;28;19964;-71
2024/01/22 04:35:14;;;;;;;;;;;;;;;-144.99;100.00;52554.09;5018124;28;19932;-71
2024/01/22 04:37:41;;;;;;;;;;;;;;;-144.99;100.00;52533.69;5014646;28;20407;-69
2024/01/22 04:40:13;;;;;;;;;;;;;;;-144.99;100.00;52523.50;5011402;28;20214;-69
2024/01/22 04:42:40;;;;;;;;;;;;;;;-144.99;100.00;52533.69;5011501;28;19961;-70
2024/01/22 04:45:07;;;;;;;;;;;;;;;-144.99;100.00;52488.84;5013302;28;19964;-69
2024/01/22 04:47:34;;;;;;;;;;;;;;;-144.99;100.00;52499.06;5008958;28;19940;-69
2024/01/22 04:50:00;;;;;;;;;;;;;;;-144.99;100.00;52513.31;5009739;28;19925;-67
2024/01/22 04:52:27;;;;;;;;;;;;;;;-144.99;100.00;52547.97;5007809;28;20044;-67
2024/01/22 04:54:53;;;;;;;;;;;;;;;-144.99;100.00;52537.78;5009144;28;20324;-66
2024/01/22 04:57:21;;;;;;;;;;;;;;;-144.99;100.00;52517.41;5010163;28;19976;-66
2024/01/22 04:59:48;;;;;;;;;;;;;;;-144.99;100.00;52529.63;5013780;28;19929;-67
2024/01/22 05:02:14;;;;;;;;;;;;;;;-144.99;100.00;52509.25;5011455;28;19926;-71
2024/01/22 05:04:41;;;;;;;;;;;;;;;-144.99;100.00;52490.91;5011203;28;19964;-71
2024/01/22 05:07:07;;;;;;;;;;;;;;;-144.99;100.00;52484.78;5010804;28;19936;-69
2024/01/22 05:09:34;;;;;;;;;;;;;;;-144.99;100.00;52501.09;5010146;28;19966;-72
2024/01/22 05:12:00;;;;;;;;;;;;;;;-144.99;100.00;52513.31;5034426;28;19929;-72
2024/01/22 05:14:28;;;;;;;;;;;;;;;-144.99;100.00;52545.94;5030210;28;20351;-70
2024/01/22 05:16:55;;;;;;;;;;;;;;;-144.99;100.00;52501.09;5023221;28;19925;-71
2024/01/22 05:19:22;;;;;;;;;;;;;;;-144.99;100.00;52509.25;5020844;28;20049;-70
2024/01/22 05:21:48;;;;;;;;;;;;;;;-144.99;100.00;52550.00;5018931;28;19980;-70
2024/01/22 05:24:14;;;;;;;;;;;;;;;-144.99;100.00;52529.63;5005601;28;19964;-70
2024/01/22 05:26:41;;;;;;;;;;;;;;;-144.99;100.00;52476.63;5010694;28;19932;-70
2024/01/22 05:29:08;;;;;;;;;;;;;;;-144.99;100.00;52509.25;5020790;28;20431;-70
2024/01/22 05:31:36;;;;;;;;;;;;;;;-144.99;100.00;52501.09;5011313;28;19933;-67
2024/01/22 05:34:03;;;;;;;;;;;;;;;-144.99;100.00;52543.91;5014217;28;20430;-66
2024/01/22 05:36:29;;;;;;;;;;;;;;;-144.99;100.00;52484.78;5010520;28;19926;-68
2024/01/22 05:38:55;;;;;;;;;;;;;;;-144.99;100.00;52505.16;5010432;28;19956;-67
2024/01/22 05:41:22;;;;;;;;;;;;;;;-144.99;100.00;52529.63;5012961;28;19934;-69
2024/01/22 05:43:48;;;;;;;;;;;;;;;-144.99;100.00;52505.16;5011278;28;19926;-69
2024/01/22 05:46:15;;;;;;;;;;;;;;;-144.99;100.00;52521.47;5014331;28;20020;-69
2024/01/22 05:48:43;;;;;;;;;;;;;;;-144.99;100.00;52462.34;5008455;28;19926;-69
2024/01/22 05:51:10;;;;;;;;;;;;;;;-144.99;100.00;52501.09;5014565;28;20003;-69
2024/01/22 05:53:38;;;;;;;;;;;;;;;-144.99;100.00;52505.16;5010196;28;20343;-69
2024/01/22 05:56:05;;;;;;;;;;;;;;;-144.99;100.00;52492.94;5007490;28;19932;-69
2024/01/22 05:58:32;;;;;;;;;;;;;;;-144.99;100.00;52511.28;5011294;28;20028;-68
2024/01/22 06:00:58;;;;;;;;;;;;;;;-144.99;100.00;52484.78;5012338;28;20036;-68
2024/01/22 06:03:25;;;;;;;;;;;;;;;-144.99;100.00;52543.91;5013993;28;20383;-68
2024/01/22 06:05:53;;;;;;;;;;;;;;;-144.99;100.00;52464.41;5021106;28;20031;-68
2024/01/22 06:08:19;;;;;;;;;;;;;;;-144.99;100.00;52482.75;5009067;28;19960;-69
2024/01/22 06:10:45;;;;;;;;;;;;;;;-144.99;100.00;52545.94;5012174;28;19932;-69
2024/01/22 06:13:12;;;;;;;;;;;;;;;-144.99;100.00;52519.44;5008670;28;19940;-70
2024/01/22 06:15:39;;;;;;;;;;;;;;;-144.99;100.00;52519.44;5008782;28;20032;-71
2024/01/22 06:18:06;;;;;;;;;;;;;;;-144.99;100.00;52484.78;5011734;28;20368;-72
2024/01/22 06:20:33;;;;;;;;;;;;;;;-144.99;100.00;52513.31;5017908;28;19987;-70
2024/01/22 06:23:01;;;;;;;;;;;;;;;-144.99;100.00;52533.69;5021468;28;19929;-73
2024/01/22 06:25:27;;;;;;;;;;;;;;;-144.99;100.00;52466.44;5035071;28;19926;-73
2024/01/22 06:27:53;;;;;;;;;;;;;;;-144.99;100.00;52462.34;5034701;28;19932;-73
2024/01/22 06:30:20;;;;;;;;;;;;;;;-144.99;100.00;52497.00;4341164;28;10000716;-69
2024/01/22 06:32:46;;;;;;;;;;;;;;;-144.99;100.00;52468.47;5019076;28;19973;-68
2024/01/22 06:35:13;;;;;;;;;;;;;;;-144.99;100.00;52505.16;5004597;28;19979;-68
2024/01/22 06:37:39;;;;;;;;;;;;;;;-144.99;100.00;52539.81;5004048;28;19965;-69
2024/01/22 06:40:08;;;;;;;;;;;;;;;-144.99;100.00;52505.16;5010872;28;20040;-68
2024/01/22 06:42:35;;;;;;;;;;;;;;;-144.99;100.00;52501.09;5011872;28;19929;-68
2024/01/22 06:45:01;;;;;;;;;;;;;;;-144.99;100.00;52501.09;5010545;28;20039;-68
2024/01/22 06:47:29;;;;;;;;;;;;;;;-144.99;100.00;52513.31;5008037;28;19930;-69
2024/01/22 06:49:56;;;;;;;;;;;;;;;-144.99;100.00;52505.16;5013729;28;20375;-69
2024/01/22 06:52:22;;;;;;;;;;;;;;;-144.99;100.00;52523.50;5013734;28;20099;-69
2024/01/22 06:54:49;;;;;;;;;;;;;;;-144.99;100.00;52488.84;5008645;28;19929;-68
2024/01/22 06:57:17;;;;;;;;;;;;;;;-144.99;100.00;52525.56;5004161;28;19965;-68
2024/01/22 06:59:43;;;;;;;;;;;;;;;-144.99;100.00;52505.16;5013165;28;20476;-69
2024/01/22 07:02:10;;;;;;;;;;;;;;;-144.99;100.00;52501.09;5011091;28;19934;-68
2024/01/22 07:04:36;;;;;;;;;;;;;;;-144.99;100.00;52503.13;5016524;28;20016;-68
2024/01/22 07:07:03;;;;;;;;;;;;;;;-144.99;100.00;52466.44;5009433;28;19929;-68
2024/01/22 07:09:30;;;;;;;;;;;;;;;-144.99;100.00;52484.78;5013990;28;20348;-67
2024/01/22 07:11:56;;;;;;;;;;;;;;;-144.99;100.00;52468.47;5005650;28;19980;-69
2024/01/22 07:14:24;;;;;;;;;;;;;;;-144.99;100.00;52525.56;5018353;28;19988;-67
2024/01/22 07:16:51;;;;;;;;;;;;;;;-144.99;100.00;52501.09;5009906;28;20012;-69
2024/01/22 07:19:17;;;;;;;;;;;;;;;-144.99;100.00;52513.31;5010760;28;19960;-70
2024/01/22 07:21:45;;;;;;;;;;;;;;;-144.99;100.00;52521.47;5004077;28;20532;-69
2024/01/22 07:24:12;;;;;;;;;;;;;;;-144.99;100.00;52488.84;5006399;28;20579;-68
2024/01/22 07:26:38;;;;;;;;;;;;;;;-144.99;100.00;52529.63;5014099;28;19929;-68
2024/01/22 07:29:05;;;;;;;;;;;;;;;-144.99;100.00;52505.16;5018667;28;20143;-68
2024/01/22 07:31:32;;;;;;;;;;;;;;;-144.99;100.00;52519.44;5005591;28;19933;-68
2024/01/22 07:33:59;;;;;;;;;;;;;;;-144.99;100.00;52509.25;5011414;28;20388;-68
2024/01/22 07:36:26;;;;;;;;;;;;;;;-144.99;100.00;52537.78;5008064;28;19968;-68
2024/01/22 07:38:54;;;;;;;;;;;;;;;-144.99;100.00;52499.06;5011752;28;20322;-68
2024/01/22 07:41:21;;;;;;;;;;;;;;;-144.99;100.00;52476.63;5009977;28;19937;-69
2024/01/22 07:43:47;;;;;;;;;;;;;;;-144.99;100.00;52464.41;5004806;28;20027;-68
2024/01/22 07:46:14;;;;;;;;;;;;;;;-144.99;100.00;52545.94;5012713;28;19925;-68
2024/01/22 07:48:42;;;;;;;;;;;;;;;-144.99;100.00;52513.31;5010249;28;19929;-69
2024/01/22 07:51:08;;;;;;;;;;;;;;;-144.99;100.00;52505.16;5006654;28;19929;-68
2024/01/22 07:53:35;;;;;;;;;;;;;;;-144.99;100.00;52521.47;5006927;28;20351;-70
2024/01/22 07:56:01;;;;;;;;;;;;;;;-144.99;100.00;52476.63;5006461;28;20044;-70
2024/01/22 07:58:28;;;;;;;;;;;;;;;-144.99;100.00;52509.25;5005518;28;19933;-70
2024/01/22 08:00:54;;;;;;;;;;;;;;;-144.99;100.00;52517.41;5011675;28;19969;-69
2024/01/22 08:03:22;;;;;;;;;;;;;;;-144.99;100.00;52517.41;5009013;28;20314;-69
2024/01/22 08:05:50;;;;;;;;;;;;;;;-144.99;100.00;52505.16;5005961;28;20451;-69
2024/01/22 08:08:16;;;;;;;;;;;;;;;-144.99;100.00;52517.41;5009822;28;20040;-69
2024/01/22 08:10:43;;;;;;;;;;;;;;;-144.99;100.00;52513.31;5007754;28;20031;-70
2024/01/22 08:13:10;;;;;;;;;;;;;;;-144.99;100.00;52517.41;4667454;28;9999612;-69
2024/01/22 08:15:37;;;;;;;;;;;;;;;-144.99;100.00;52525.56;5001544;28;20040;-69
2024/01/22 08:18:03;;;;;;;;;;;;;;;-144.99;100.00;52484.78;5014184;28;20008;-69
2024/01/22 08:20:30;;;;;;;;;;;;;;;-144.99;100.00;52476.63;5012579;28;19934;-70
2024/01/22 08:22:57;;;;;;;;;;;;;;;-144.99;100.00;52492.94;5012305;28;19933;-70
2024/01/22 08:25:27;;;;;;;;;;;;;;;-144.99;100.00;52488.84;5008386;28;20456;-69
2024/01/22 08:27:53;;;;;;;;;;;;;;;-144.99;100.00;52517.41;5004380;28;20387;-69
2024/01/22 08:30:20;;;;;;;;;;;;;;;-144.99;100.00;52484.78;5009342;28;19935;-69
2024/01/22 08:32:46;;;;;;;;;;;;;;;-144.99;100.00;52501.09;5010511;28;19961;-69
2024/01/22 08:35:13;;;;;;;;;;;;;;;-144.99;100.00;52476.63;5015073;28;19944;-68
2024/01/22 08:37:39;;;;;;;;;;;;;;;-144.99;100.00;52552.03;4998596;28;20012;-69
2024/01/22 08:40:09;;;;;;;;;;;;;;;-144.99;100.00;52452.16;5019654;28;20020;-69
2024/01/22 08:42:36;;;;;;;;;;;;;;;-144.99;100.00;52507.19;5016636;28;19953;-70
2024/01/22 08:45:02;;;;;;;;;;;;;;;-144.99;100.00;52460.31;5014582;28;19979;-69
2024/01/22 08:47:28;;;;;;;;;;;;;;;-144.99;100.00;52541.84;5010579;28;19964;-70
2024/01/22 08:49:55;;;;;;;;;;;;;;;-144.99;100.00;52521.47;5013344;28;19935;-71
2024/01/22 08:52:21;;;;;;;;;;;;;;;-144.99;100.00;52525.56;5011856;28;19975;-71
2024/01/22 08:54:49;;;;;;;;;;;;;;;-144.99;100.00;52529.63;5011668;28;19960;-70
2024/01/22 08:57:17;;;;;;;;;;;;;;;-144.99;100.00;52492.94;5011500;28;19936;-71
2024/01/22 08:59:43;;;;;;;;;;;;;;;-144.99;100.00;52521.47;5017406;28;20397;-71
2024/01/22 09:02:09;;;;;;;;;;;;;;;-144.99;100.00;52439.94;5006158;28;20031;-71
2024/01/22 09:04:36;;;;;;;;;;;;;;;-144.99;100.00;52456.25;5017966;28;20047;-71
2024/01/22 09:07:02;;;;;;;;;;;;;;;-144.99;100.00;52464.41;5011404;28;20060;-71
2024/01/22 09:09:29;;;;;;;;;;;;;;;-144.99;100.00;52494.97;5017448;28;19929;-72
2024/01/22 09:11:55;;;;;;;;;;;;;;;-144.99;100.00;52505.16;5014931;28;19941;-71
2024/01/22 09:14:23;;;;;;;;;;;;;;;-144.99;100.00;52515.34;5017574;28;19930;-72
2024/01/22 09:16:50;;;;;;;;;;;;;;;-144.99;100.00;52468.47;5012527;28;20192;-72
2024/01/22 09:19:16;;;;;;;;;;;;;;;-144.99;100.00;52484.78;5012287;28;19925;-72
2024/01/22 09:21:43;;;;;;;;;;;;;;;-144.99;100.00;52488.84;5016520;28;19936;-72
2024/01/22 09:24:10;;;;;;;;;;;;;;;-144.99;100.00;52464.41;5016485;28;20026;-72
2024/01/22 09:26:36;;;;;;;;;;;;;;;-144.99;100.00;52480.72;5016748;28;19961;-74
2024/01/22 09:29:03;;;;;;;;;;;;;;;-144.99;100.00;52484.78;5008683;28;20028;-72
2024/01/22 09:31:30;;;;;;;;;;;;;;;-144.99;100.00;52476.63;5010873;28;19929;-71
2024/01/22 09:33:57;;;;;;;;;;;;;;;-144.99;100.00;52464.41;5002474;28;20265;-71
2024/01/22 09:36:24;;;;;;;;;;;;;;;-144.99;100.00;52490.91;5006426;28;19929;-72
2024/01/22 09:38:50;;;;;;;;;;;;;;;-144.99;100.00;52482.75;5011379;28;19937;-72
2024/01/22 09:41:18;;;;;;;;;;;;;;;-144.99;100.00;52492.94;5008983;28;20350;-71
2024/01/22 09:43:45;;;;;;;;;;;;;;;-144.99;100.00;52464.41;5016477;28;20479;-72
2024/01/22 09:46:13;;;;;;;;;;;;;;;-144.99;100.00;52533.69;5008996;28;20016;-72
2024/01/22 09:48:41;;;;;;;;;;;;;;;-144.99;100.00;52511.28;5011548;28;20035;-72
2024/01/22 09:51:07;;;;;;;;;;;;;;;-144.99;100.00;52501.09;5012240;28;19972;-71
2024/01/22 09:53:35;;;;;;;;;;;;;;;-144.99;100.00;52550.00;5010045;28;19965;-71
2024/01/22 09:56:03;;;;;;;;;;;;;;;-144.99;100.00;52525.56;5009551;28;19976;-71
2024/01/22 09:58:31;;;;;;;;;;;;;;;-144.99;100.00;52517.41;5004324;28;20461;-71
2024/01/22 10:00:58;;;;;;;;;;;;;;;-144.99;100.00;52539.81;5014989;28;19925;-71
2024/01/22 10:03:26;;;;;;;;;;;;;;;-144.99;100.00;52486.81;5018591;28;19929;-71
2024/01/22 10:05:55;;;;;;;;;;;;;;;-144.99;100.00;52501.09;5024787;28;19932;-71
2024/01/22 10:08:22;;;;;;;;;;;;;;;-144.99;100.00;52490.91;5023083;28;20498;-72
2024/01/22 10:10:48;;;;;;;;;;;;;;;-144.99;100.00;52497.00;5010929;28;19933;-71
2024/01/22 10:13:17;;;;;;;;;;;;;;;-144.99;100.00;52488.84;5008971;28;19940;-71
2024/01/22 10:15:43;;;;;;;;;;;;;;;-144.99;100.00;52509.25;5012736;28;19925;-71
2024/01/22 10:18:11;;;;;;;;;;;;;;;-144.99;100.00;52533.69;5015642;28;19936;-71
2024/01/22 10:20:38;;;;;;;;;;;;;;;-144.99;100.00;52501.09;5016415;28;19991;-71
2024/01/22 10:23:06;;;;;;;;;;;;;;;-144.99;100.00;52472.56;5006883;28;19929;-71
2024/01/22 10:25:32;;;;;;;;;;;;;;;-144.99;100.00;52505.16;5015768;28;20449;-71
2024/01/22 10:28:09;;;;;;;;;;;;;;;-144.99;100.00;52492.94;5013433;28;19939;-71
2024/01/22 10:30:36;;;;;;;;;;;;;;;-144.99;100.00;52460.31;5013264;28;19936;-71
2024/01/22 10:33:12;;;;;;;;;;;;;;;-144.99;100.00;52480.72;5005418;28;19933;-71
2024/01/22 10:35:39;;;;;;;;;;;;;;;-144.99;100.00;52529.63;5008740;28;20007;-71
2024/01/22 10:38:11;;;;;;;;;;;;;;;-144.99;100.00;52486.81;5011686;28;20039;-71
2024/01/22 10:40:38;;;;;;;;;;;;;;;-144.99;100.00;52488.84;5017872;28;20007;-71
2024/01/22 10:43:21;;;;;;;;;;;;;;;-144.99;100.00;52533.69;5008227;28;19953;-71
2024/01/22 10:45:48;;;;;;;;;;;;;;;-144.99;100.00;52501.09;5006517;28;19979;-71
2024/01/22 10:48:16;;;;;;;;;;;;;;;-144.99;100.00;52513.31;5017742;28;19929;-71
2024/01/22 10:50:43;;;;;;;;;;;;;;;-144.99;100.00;52492.94;5026069;28;19926;-71
2024/01/22 10:53:11;;;;;;;;;;;;;;;-144.99;100.00;52456.25;5031551;28;20405;-71
2024/01/22 10:55:38;;;;;;;;;;;;;;;-144.99;100.00;52509.25;5027609;28;19957;-71
2024/01/22 10:58:09;;;;;;;;;;;;;;;-144.99;100.00;52492.94;5030134;28;19933;-70
2024/01/22 11:00:40;;;;;;;;;;;;;;;-144.99;100.00;52488.84;5014853;28;19992;-71
2024/01/22 11:03:10;;;;;;;;;;;;;;;-144.99;100.00;52501.09;5010277;28;20559;-70
2024/01/22 11:05:39;;;;;;;;;;;;;;;-144.99;100.00;52472.56;5007934;28;20031;-70
2024/01/22 11:08:07;;;;;;;;;;;;;;;-144.99;100.00;52513.31;5024510;28;19933;-71
2024/01/22 11:10:36;;;;;;;;;;;;;;;-144.99;100.00;52513.31;5021702;28;20003;-71
2024/01/22 11:13:02;;;;;;;;;;;;;;;-144.99;100.00;52484.78;5027144;28;20320;-72
2024/01/22 11:15:29;;;;;;;;;;;;;;;-144.99;100.00;52476.63;5023404;28;19930;-72
2024/01/22 11:17:55;;;;;;;;;;;;;;;-144.99;100.00;52431.78;5021034;28;19942;-71
2024/01/22 11:20:23;;;;;;;;;;;;;;;-144.99;100.00;52492.94;5026270;28;19933;-71
2024/01/22 11:22:58;;;;;;;;;;;;;;;-144.99;100.00;52460.31;5028253;28;19985;-71
2024/01/22 11:25:25;;;;;;;;;;;;;;;-144.99;100.00;52403.25;5020839;28;19973;-72
2024/01/22 11:28:00;;;;;;;;;;;;;;;-144.99;100.00;52421.59;5016125;28;19964;-72
2024/01/22 11:30:27;;;;;;;;;;;;;;;-144.99;100.00;52468.47;5018488;28;19941;-72
2024/01/22 11:32:54;;;;;;;;;;;;;;;-144.99;100.00;52484.78;5011785;28;20288;-71
2024/01/22 11:35:32;;;;;;;;;;;;;;;-144.99;100.00;52474.59;5013515;28;19956;-71
2024/01/22 11:37:59;;;;;;;;;;;;;;;-144.99;100.00;52441.97;5003849;28;20295;-72
2024/01/22 11:40:47;;;;;;;;;;;;;;;-144.99;100.00;52417.53;5018113;28;19999;-71
2024/01/22 11:43:15;;;;;;;;;;;;;;;-144.99;100.00;52354.34;5011270;28;20027;-71
2024/01/22 11:45:41;;;;;;;;;;;;;;;-144.99;100.00;52331.91;5011376;28;20436;-71
2024/01/22 11:48:15;;;;;;;;;;;;;;;-144.99;100.00;52439.94;5008198;28;19960;-71
2024/01/22 11:50:42;;;;;;;;;;;;;;;-144.99;100.00;52391.03;5011994;28;19929;-71
2024/01/22 11:53:09;;;;;;;;;;;;;;;-144.99;100.00;52464.41;5017532;28;20168;-71
2024/01/22 11:55:35;;;;;;;;;;;;;;;-144.99;100.00;52472.56;5014136;28;20099;-71
2024/01/22 11:58:01;;;;;;;;;;;;;;;-144.99;100.00;52472.56;5003779;28;19964;-71
2024/01/22 12:00:29;;;;;;;;;;;;;;;-144.99;100.00;52439.94;5014740;28;20466;-71
2024/01/22 12:02:59;;;;;;;;;;;;;;;-144.99;100.00;52490.91;5014024;28;20281;-71
2024/01/22 12:05:25;;;;;;;;;;;;;;;-144.99;100.00;52497.00;5015829;28;19937;-71
2024/01/22 12:07:52;;;;;;;;;;;;;;;-144.99;100.00;52488.84;5005429;28;19934;-71
2024/01/22 12:10:19;;;;;;;;;;;;;;;-144.99;100.00;52517.41;5000598;28;19929;-71
2024/01/22 12:12:49;;;;;;;;;;;;;;;-144.99;100.00;52474.59;5016171;28;19929;-71
2024/01/22 12:15:15;;;;;;;;;;;;;;;-144.99;100.00;52505.16;5015261;28;20216;-72
2024/01/22 12:17:44;;;;;;;;;;;;;;;-144.99;100.00;52460.31;5029151;28;19971;-71